Time;durP1;ratioP1;P1;durP2;ratioP2;P2;SDS_P1;SDS_P2;PMS_P1;PMS_P2;Temp;Humidity;BMP_temperature;BMP_pressure;BME280_temperature;BME280_humidity;BME280_pressure;Samples;Min_cycle;Max_cycle;Signal;HPM_P1;HPM_P2
2022/05/13 00:00:49;;;;;;;7.65;5.32;;;27.10;57.30;;;;;;5015817;28;20017;-88
2022/05/13 00:03:14;;;;;;;7.72;4.90;;;27.10;55.70;;;;;;5034106;28;20030;-80
2022/05/13 00:05:40;;;;;;;9.05;5.38;;;27.20;55.00;;;;;;5033915;28;20502;-80
2022/05/13 00:08:06;;;;;;;7.25;5.35;;;27.30;55.10;;;;;;5026432;28;20025;-82
2022/05/13 00:10:32;;;;;;;8.50;5.40;;;27.40;55.00;;;;;;5020108;28;20033;-82
2022/05/13 00:12:58;;;;;;;10.00;5.30;;;27.70;55.20;;;;;;5033674;28;20029;-82
2022/05/13 00:15:26;;;;;;;8.02;5.72;;;28.00;54.90;;;;;;5015589;28;20067;-83
2022/05/13 00:17:56;;;;;;;8.10;5.75;;;28.10;54.60;;;;;;5016796;28;20034;-82
2022/05/13 00:20:24;;;;;;;8.02;5.53;;;28.20;55.00;;;;;;5016095;28;20071;-86
2022/05/13 00:22:54;;;;;;;8.98;5.90;;;28.30;55.00;;;;;;5016531;28;20034;-84
2022/05/13 00:25:24;;;;;;;7.50;5.75;;;28.30;55.10;;;;;;5033404;28;20155;-83
2022/05/13 00:27:50;;;;;;;8.10;5.90;;;28.30;55.10;;;;;;5016669;28;20392;-83
2022/05/13 00:30:16;;;;;;;7.97;5.70;;;28.30;55.10;;;;;;5033837;28;20037;-83
2022/05/13 00:32:44;;;;;;;8.20;5.97;;;28.30;55.10;;;;;;5015513;28;20049;-81
2022/05/13 00:35:10;;;;;;;8.30;5.88;;;28.20;55.10;;;;;;5015342;28;20116;-83
2022/05/13 00:37:35;;;;;;;6.75;5.97;;;28.10;55.10;;;;;;5012719;28;20026;-80
2022/05/13 00:40:04;;;;;;;9.88;5.82;;;27.90;55.50;;;;;;5028446;28;20036;-82
2022/05/13 00:42:30;;;;;;;7.68;6.13;;;27.80;55.70;;;;;;5032772;28;20018;-84
2022/05/13 00:44:58;;;;;;;7.57;5.90;;;27.70;55.70;;;;;;5032916;28;20033;-80
2022/05/13 00:47:25;;;;;;;8.80;6.03;;;27.80;55.80;;;;;;5033220;28;20037;-82
2022/05/13 00:49:53;;;;;;;8.25;5.75;;;27.70;55.50;;;;;;5031954;28;20041;-86
2022/05/13 00:52:19;;;;;;;7.15;5.53;;;27.60;55.20;;;;;;5033127;28;20112;-80
2022/05/13 00:54:45;;;;;;;6.60;5.13;;;27.50;55.90;;;;;;5014026;28;20021;-85
2022/05/13 00:57:12;;;;;;;7.80;5.70;;;27.40;54.90;;;;;;5011709;28;20164;-81
2022/05/13 00:59:40;;;;;;;7.05;4.70;;;27.40;54.40;;;;;;5002617;28;20060;-82
2022/05/13 01:02:06;;;;;;;6.78;5.07;;;27.60;54.60;;;;;;5015449;28;20029;-80
2022/05/13 01:04:34;;;;;;;6.78;5.05;;;27.70;54.10;;;;;;5015979;28;20022;-78
2022/05/13 01:07:04;;;;;;;6.72;5.22;;;27.70;53.70;;;;;;5016065;28;20033;-82
2022/05/13 01:09:34;;;;;;;7.28;4.53;;;27.70;54.40;;;;;;5014620;28;20056;-82
2022/05/13 01:12:07;;;;;;;7.75;4.93;;;27.90;54.10;;;;;;5032915;28;20037;-81
2022/05/13 01:14:41;;;;;;;9.68;4.35;;;28.00;54.50;;;;;;5014999;28;20029;-84
2022/05/13 01:20:15;;;;;;;8.38;4.57;;;27.80;55.00;;;;;;5033590;28;20087;-87
2022/05/13 01:22:49;;;;;;;6.97;5.40;;;27.60;55.20;;;;;;5033342;28;20030;-84
2022/05/13 01:25:19;;;;;;;8.55;5.47;;;27.40;55.60;;;;;;5011944;28;20025;-82
2022/05/13 01:27:46;;;;;;;9.45;5.53;;;27.40;55.90;;;;;;5026916;28;20036;-81
2022/05/13 01:30:16;;;;;;;7.63;5.85;;;27.30;55.80;;;;;;5016270;28;20431;-86
2022/05/13 01:32:42;;;;;;;7.35;4.72;;;27.20;56.10;;;;;;5033346;28;20021;-82
2022/05/13 01:35:09;;;;;;;5.78;4.45;;;26.80;56.70;;;;;;5018589;28;20083;-83
2022/05/13 01:37:35;;;;;;;6.85;4.22;;;26.80;56.00;;;;;;5019548;28;20434;-78
2022/05/13 01:40:03;;;;;;;5.70;4.00;;;27.00;55.80;;;;;;5035395;28;20468;-84
2022/05/13 01:42:30;;;;;;;5.72;3.90;;;26.90;55.40;;;;;;5036096;28;20049;-89
2022/05/13 01:44:56;;;;;;;4.88;3.63;;;26.80;55.10;;;;;;5018043;28;20029;-88
2022/05/13 01:47:22;;;;;;;4.45;3.42;;;27.00;54.70;;;;;;5036263;28;20033;-78
2022/05/13 01:49:48;;;;;;;6.15;3.78;;;26.90;54.40;;;;;;5019204;28;20492;-82
2022/05/13 01:52:13;;;;;;;5.50;3.50;;;26.80;54.80;;;;;;5018726;28;20035;-87
2022/05/13 01:54:39;;;;;;;5.60;3.90;;;26.70;54.80;;;;;;5018702;28;20029;-83
2022/05/13 01:57:05;;;;;;;5.60;3.50;;;26.50;55.00;;;;;;5035304;28;20254;-82
2022/05/13 01:59:31;;;;;;;5.07;3.47;;;26.50;55.00;;;;;;4999274;28;20384;-80
2022/05/13 02:01:57;;;;;;;9.60;4.05;;;26.40;55.40;;;;;;5024127;28;20067;-83
2022/05/13 02:04:22;;;;;;;7.45;3.72;;;26.50;55.30;;;;;;5018463;28;20041;-82
2022/05/13 02:06:48;;;;;;;4.88;3.50;;;26.60;55.20;;;;;;5036827;28;20025;-92
2022/05/13 02:09:14;;;;;;;5.90;3.42;;;26.90;55.10;;;;;;5036005;28;20025;-90
2022/05/13 02:11:46;;;;;;;6.78;3.78;;;27.10;54.70;;;;;;5015444;28;20670;-85
2022/05/13 02:14:16;;;;;;;6.85;3.85;;;27.20;54.70;;;;;;5018656;28;20030;-78
2022/05/13 02:16:42;;;;;;;5.82;3.55;;;27.10;54.70;;;;;;5036415;28;20040;-84
2022/05/13 02:19:08;;;;;;;5.15;3.30;;;27.00;54.60;;;;;;5018566;28;20026;-81
2022/05/13 02:21:35;;;;;;;5.15;3.30;;;26.70;54.80;;;;;;5017776;28;20037;-83
2022/05/13 02:24:01;;;;;;;5.00;3.63;;;26.50;55.30;;;;;;5016706;28;20548;-80
2022/05/13 02:26:28;;;;;;;6.97;3.47;;;26.70;55.50;;;;;;5003758;28;20021;-86
2022/05/13 02:28:54;;;;;;;4.85;3.25;;;26.80;55.20;;;;;;5018204;28;20484;-81
2022/05/13 02:31:20;;;;;;;5.32;3.60;;;26.90;55.00;;;;;;5017487;28;20080;-79
2022/05/13 02:33:46;;;;;;;5.57;3.60;;;26.90;55.10;;;;;;5034097;28;20100;-86
2022/05/13 02:36:12;;;;;;;6.07;3.42;;;26.70;55.50;;;;;;5035151;28;20468;-92
2022/05/13 02:38:39;;;;;;;5.18;3.47;;;27.00;55.30;;;;;;5034852;28;20088;-81
2022/05/13 02:41:11;;;;;;;4.82;3.35;;;27.10;55.00;;;;;;5034992;28;20039;-82
2022/05/13 02:43:48;;;;;;;4.47;3.38;;;27.00;55.10;;;;;;5034303;28;20021;-80
2022/05/13 02:46:17;;;;;;;5.35;3.63;;;27.20;54.60;;;;;;5031623;28;20037;-87
2022/05/13 02:48:43;;;;;;;5.78;3.10;;;27.00;54.60;;;;;;5035716;28;20025;-82
2022/05/13 02:51:08;;;;;;;5.30;3.30;;;27.00;54.80;;;;;;5034704;28;20499;-88
2022/05/13 02:53:34;;;;;;;4.13;2.97;;;27.10;54.70;;;;;;5016443;28;20036;-82
2022/05/13 02:56:00;;;;;;;6.05;3.40;;;26.80;54.80;;;;;;5030910;28;20480;-81
2022/05/13 02:58:25;;;;;;;6.85;2.90;;;27.00;54.60;;;;;;5025879;28;20353;-79
2022/05/13 03:00:52;;;;;;;5.90;3.25;;;27.00;54.00;;;;;;5034653;28;20034;-80
2022/05/13 03:03:18;;;;;;;4.40;3.38;;;26.50;55.50;;;;;;5016645;28;20025;-80
2022/05/13 03:05:43;;;;;;;5.63;2.95;;;26.60;55.70;;;;;;5034040;28;20133;-85
2022/05/13 03:08:09;;;;;;;4.78;3.25;;;26.50;55.70;;;;;;5001950;28;20415;-80
2022/05/13 03:10:37;;;;;;;5.10;3.00;;;26.60;55.20;;;;;;5017155;28;20026;-80
2022/05/13 03:13:05;;;;;;;3.88;2.88;;;26.50;55.10;;;;;;5029636;28;20464;-85
2022/05/13 03:15:31;;;;;;;4.70;3.15;;;26.40;55.20;;;;;;5016605;28;20045;-83
2022/05/13 03:17:57;;;;;;;4.97;3.20;;;26.50;55.10;;;;;;5034463;28;20263;-88
2022/05/13 03:20:24;;;;;;;5.25;2.85;;;26.50;55.00;;;;;;5017529;28;20494;-83
2022/05/13 03:22:51;;;;;;;5.80;3.10;;;26.20;55.50;;;;;;5016456;28;20026;-79
2022/05/13 03:25:18;;;;;;;6.07;3.03;;;26.30;55.50;;;;;;5016446;28;20451;-81
2022/05/13 03:27:45;;;;;;;5.97;3.15;;;26.10;55.60;;;;;;5016568;28;20029;-88
2022/05/13 03:30:14;;;;;;;5.75;3.53;;;26.20;55.70;;;;;;5033512;28;20030;-82
2022/05/13 03:32:40;;;;;;;5.30;3.00;;;26.00;55.40;;;;;;5034069;28;20021;-80
2022/05/13 03:35:08;;;;;;;7.13;2.72;;;25.70;55.70;;;;;;5032552;28;20124;-80
2022/05/13 03:37:34;;;;;;;5.85;3.55;;;25.30;57.10;;;;;;5032413;28;20717;-80
2022/05/13 03:40:00;;;;;;;6.20;3.40;;;25.00;57.90;;;;;;5016301;28;20044;-79
2022/05/13 03:42:28;;;;;;;5.28;3.38;;;24.90;59.40;;;;;;5033473;28;20030;-84
2022/05/13 03:44:57;;;;;;;12.10;3.67;;;24.80;59.90;;;;;;5016381;28;20036;-86
2022/05/13 03:47:23;;;;;;;6.68;3.88;;;24.80;61.10;;;;;;5034552;28;20036;-83
2022/05/13 03:49:49;;;;;;;6.18;4.00;;;24.40;62.40;;;;;;5033919;28;20041;-79
2022/05/13 03:52:15;;;;;;;5.95;4.10;;;24.30;63.50;;;;;;5016251;28;20036;-80
2022/05/13 03:54:41;;;;;;;6.30;4.53;;;23.90;65.30;;;;;;5015712;28;20383;-79
2022/05/13 03:57:08;;;;;;;6.60;3.88;;;23.70;66.30;;;;;;5020597;28;20480;-77
2022/05/13 03:59:34;;;;;;;5.70;4.20;;;23.30;67.40;;;;;;5033448;28;20029;-78
2022/05/13 04:02:00;;;;;;;5.88;4.05;;;22.70;68.70;;;;;;5033004;28;20022;-80
2022/05/13 04:04:29;;;;;;;6.50;4.10;;;22.40;70.00;;;;;;5015695;28;20021;-83
2022/05/13 04:09:41;;;;;;;7.28;4.43;;;22.80;69.70;;;;;;5033658;28;20044;-79
2022/05/13 04:17:36;;;;;;;6.68;5.00;;;23.50;68.70;;;;;;5032801;28;20045;-78
2022/05/13 04:20:05;;;;;;;9.32;4.85;;;23.70;69.30;;;;;;5015965;28;20021;-78
2022/05/13 04:22:31;;;;;;;5.97;4.60;;;23.70;69.20;;;;;;5015445;28;20033;-82
2022/05/13 04:24:57;;;;;;;7.82;5.03;;;24.00;69.20;;;;;;5031476;28;20056;-84
2022/05/13 04:27:23;;;;;;;8.65;5.38;;;24.40;67.60;;;;;;5011795;28;20483;-79
2022/05/13 04:29:49;;;;;;;8.18;5.22;;;24.70;66.70;;;;;;5032824;28;20483;-81
2022/05/13 04:32:14;;;;;;;7.50;5.13;;;24.20;69.00;;;;;;5030415;28;20033;-76
2022/05/13 04:34:40;;;;;;;7.63;5.60;;;23.90;69.80;;;;;;5031158;28;20071;-86
2022/05/13 04:37:06;;;;;;;11.05;6.15;;;24.10;69.70;;;;;;5030615;28;20060;-83
2022/05/13 04:39:31;;;;;;;6.20;4.90;;;24.40;68.80;;;;;;5032865;28;20451;-83
2022/05/13 04:44:41;;;;;;;6.10;4.88;;;24.40;68.00;;;;;;5033067;28;20033;-85
2022/05/13 04:48:15;;;;;;;8.00;5.07;;;24.30;68.10;;;;;;5032748;28;20025;-86
2022/05/13 04:49:53;;;;;;;6.35;4.90;;;24.30;68.30;;;;;;5032785;28;20915;-88
2022/05/13 04:52:19;;;;;;;10.73;4.53;;;24.40;67.60;;;;;;5015742;28;20041;-83
2022/05/13 04:54:44;;;;;;;6.13;4.50;;;24.60;65.70;;;;;;5011832;28;20040;-84
2022/05/13 04:57:10;;;;;;;5.57;4.40;;;24.70;66.00;;;;;;5006784;28;20037;-83
2022/05/13 04:59:36;;;;;;;7.00;4.55;;;24.80;66.20;;;;;;4999481;28;20107;-80
2022/05/13 05:02:01;;;;;;;6.45;4.63;;;24.90;65.30;;;;;;5030679;28;20361;-78
2022/05/13 05:04:27;;;;;;;5.60;4.10;;;25.20;66.30;;;;;;5014724;28;20052;-81
2022/05/13 05:06:53;;;;;;;6.38;4.13;;;25.30;65.30;;;;;;5032365;28;20040;-84
2022/05/13 05:09:18;;;;;;;6.63;4.32;;;25.10;65.50;;;;;;5023418;28;20061;-81
2022/05/13 05:11:44;;;;;;;6.65;4.32;;;25.00;65.10;;;;;;5004100;28;20033;-80
2022/05/13 05:14:10;;;;;;;6.03;4.40;;;24.90;65.90;;;;;;5008214;28;20116;-78
2022/05/13 05:16:35;;;;;;;6.50;4.28;;;24.60;66.20;;;;;;5023053;28;20375;-78
2022/05/13 05:19:01;;;;;;;6.15;3.97;;;24.50;66.20;;;;;;5006466;28;20034;-80
2022/05/13 05:21:28;;;;;;;5.05;3.83;;;24.50;66.40;;;;;;5023387;28;20030;-77
2022/05/13 05:23:55;;;;;;;5.90;4.13;;;24.70;66.20;;;;;;4998183;28;20030;-82
2022/05/13 05:26:21;;;;;;;7.97;4.75;;;25.30;64.30;;;;;;4998575;28;20116;-77
2022/05/13 05:28:49;;;;;;;7.32;4.97;;;25.90;63.70;;;;;;5016477;28;20022;-76
2022/05/13 05:31:14;;;;;;;6.13;3.97;;;26.30;63.20;;;;;;4998712;28;20029;-77
2022/05/13 05:33:42;;;;;;;6.85;3.83;;;26.10;62.80;;;;;;5015998;28;20365;-79
2022/05/13 05:36:08;;;;;;;5.05;4.10;;;26.10;62.70;;;;;;5017521;28;20045;-79
2022/05/13 05:38:34;;;;;;;5.95;3.80;;;26.40;61.80;;;;;;5034307;28;20098;-82
2022/05/13 05:41:01;;;;;;;6.35;3.85;;;26.50;62.10;;;;;;5029503;28;20036;-75
2022/05/13 05:43:28;;;;;;;5.13;3.45;;;26.20;62.30;;;;;;5035926;28;20017;-74
2022/05/13 05:45:54;;;;;;;7.13;3.90;;;26.20;62.40;;;;;;5035586;28;20187;-80
2022/05/13 05:48:23;;;;;;;7.30;3.92;;;26.10;62.10;;;;;;5035195;28;20018;-78
2022/05/13 05:50:55;;;;;;;4.70;3.87;;;26.30;62.10;;;;;;5018164;28;20151;-75
2022/05/13 05:58:53;;;;;;;6.13;3.63;;;26.10;62.10;;;;;;5030232;28;20087;-81
2022/05/13 06:01:19;;;;;;;5.80;3.65;;;26.00;61.60;;;;;;4998366;28;20038;-79
2022/05/13 06:03:45;;;;;;;7.57;3.42;;;25.90;61.60;;;;;;5011333;28;20035;-79
2022/05/13 06:06:12;;;;;;;5.22;3.60;;;26.00;61.50;;;;;;5034771;28;20455;-78
2022/05/13 06:08:39;;;;;;;5.57;3.40;;;25.90;61.00;;;;;;5033155;28;20021;-80
2022/05/13 06:11:05;;;;;;;5.68;3.80;;;25.90;60.90;;;;;;5006750;28;20042;-74
2022/05/13 06:13:31;;;;;;;5.50;3.53;;;26.00;61.40;;;;;;5035151;28;20076;-73
2022/05/13 06:15:57;;;;;;;5.65;3.50;;;26.20;60.80;;;;;;5023544;28;20042;-79
2022/05/13 06:18:23;;;;;;;4.80;3.40;;;26.20;60.30;;;;;;5009555;28;20116;-77
2022/05/13 06:20:48;;;;;;;4.63;3.47;;;26.00;60.30;;;;;;5003425;28;20034;-80
2022/05/13 06:23:14;;;;;;;5.05;3.47;;;26.10;60.40;;;;;;4998176;28;20037;-77
2022/05/13 06:25:40;;;;;;;5.75;3.30;;;26.40;60.60;;;;;;5015415;28;20416;-77
2022/05/13 06:28:06;;;;;;;5.15;3.22;;;26.60;59.40;;;;;;5024486;28;20483;-80
2022/05/13 06:30:35;;;;;;;5.13;3.15;;;26.90;59.50;;;;;;5034724;28;20028;-80
2022/05/13 06:33:03;;;;;;;5.20;3.40;;;27.10;58.60;;;;;;5035825;28;20045;-78
2022/05/13 06:35:31;;;;;;;5.50;3.58;;;27.10;58.10;;;;;;5017833;28;20037;-79
2022/05/13 06:37:57;;;;;;;4.70;3.33;;;27.30;58.80;;;;;;5017891;28;20026;-80
2022/05/13 06:40:23;;;;;;;5.85;3.50;;;27.20;58.20;;;;;;5017939;28;20028;-78
2022/05/13 06:42:52;;;;;;;5.15;3.10;;;26.90;58.60;;;;;;5028008;28;20045;-82
2022/05/13 06:45:19;;;;;;;4.97;3.50;;;26.90;59.40;;;;;;5034723;28;20025;-78
2022/05/13 06:47:44;;;;;;;4.85;3.30;;;27.10;58.70;;;;;;5015946;28;20025;-81
2022/05/13 06:50:16;;;;;;;5.05;3.30;;;27.20;58.40;;;;;;5032920;28;20519;-82
2022/05/13 06:52:42;;;;;;;5.22;3.53;;;27.40;58.70;;;;;;5017813;28;20510;-78
2022/05/13 06:55:09;;;;;;;5.65;3.92;;;27.70;58.10;;;;;;5034668;28;20037;-77
2022/05/13 06:57:34;;;;;;;4.88;3.70;;;27.80;58.20;;;;;;5034444;28;20554;-84
2022/05/13 07:00:00;;;;;;;4.93;3.25;;;27.80;57.50;;;;;;5014731;28;20029;-80
2022/05/13 07:02:27;;;;;;;5.07;3.33;;;27.90;57.40;;;;;;5016055;28;20022;-79
2022/05/13 07:04:52;;;;;;;5.82;3.47;;;27.80;57.20;;;;;;5014934;28;20029;-79
2022/05/13 07:07:18;;;;;;;4.97;3.25;;;27.60;57.50;;;;;;5005710;28;20026;-76
2022/05/13 07:09:44;;;;;;;4.32;3.20;;;27.80;57.70;;;;;;5014740;28;20489;-76
2022/05/13 07:12:10;;;;;;;4.80;3.55;;;27.70;57.70;;;;;;5015338;28;20034;-77
2022/05/13 07:14:37;;;;;;;5.90;3.28;;;27.60;57.90;;;;;;5016243;28;20423;-83
2022/05/13 07:17:06;;;;;;;5.15;3.38;;;27.90;58.30;;;;;;5016393;28;20033;-82
2022/05/13 07:19:32;;;;;;;5.93;3.20;;;28.20;58.20;;;;;;5005190;28;20026;-80
2022/05/13 07:21:59;;;;;;;4.75;3.53;;;28.40;58.30;;;;;;5014935;28;20107;-81
2022/05/13 07:24:24;;;;;;;5.13;3.03;;;28.70;58.00;;;;;;5014844;28;20030;-82
2022/05/13 07:26:50;;;;;;;4.85;3.30;;;28.90;56.60;;;;;;5010209;28;20025;-79
2022/05/13 07:29:16;;;;;;;4.30;3.13;;;28.70;56.40;;;;;;5029403;28;20120;-85
2022/05/13 07:31:42;;;;;;;4.32;2.92;;;28.90;57.60;;;;;;5012920;28;20032;-83
2022/05/13 07:34:08;;;;;;;4.85;2.92;;;29.20;57.30;;;;;;5014266;28;20030;-86
2022/05/13 07:36:34;;;;;;;4.28;3.13;;;29.20;55.60;;;;;;5013916;28;20115;-80
2022/05/13 07:41:44;;;;;;;6.68;3.33;;;29.30;55.60;;;;;;5014748;28;20092;-85
2022/05/13 07:44:10;;;;;;;7.90;3.30;;;29.30;56.00;;;;;;5013925;28;20026;-88
2022/05/13 07:46:38;;;;;;;4.45;3.00;;;29.50;56.60;;;;;;5012469;28;20026;-83
2022/05/13 07:49:06;;;;;;;5.25;3.05;;;29.40;56.40;;;;;;5014242;28;20068;-83
2022/05/13 07:51:31;;;;;;;4.28;2.70;;;29.30;55.80;;;;;;4996215;28;20041;-89
2022/05/13 07:53:57;;;;;;;5.18;2.88;;;29.40;55.80;;;;;;5014093;28;20034;-85
2022/05/13 07:56:23;;;;;;;4.38;3.03;;;29.00;54.90;;;;;;4996344;28;20065;-85
2022/05/13 07:58:49;;;;;;;4.55;2.90;;;28.90;55.50;;;;;;5012429;28;20030;-80
2022/05/13 08:01:17;;;;;;;6.07;3.40;;;28.70;56.00;;;;;;4997486;28;20539;-87
2022/05/13 08:03:44;;;;;;;3.65;2.80;;;28.30;56.80;;;;;;4996207;28;20530;-86
2022/05/13 08:06:13;;;;;;;6.03;3.20;;;28.40;56.40;;;;;;5013305;28;20052;-90
2022/05/13 08:08:41;;;;;;;5.57;2.97;;;28.40;56.30;;;;;;5012812;28;20113;-81
2022/05/13 08:11:10;;;;;;;4.20;2.80;;;28.20;56.10;;;;;;4996766;28;20037;-83
2022/05/13 08:13:38;;;;;;;4.10;2.72;;;28.00;57.40;;;;;;5014328;28;20427;-79
2022/05/13 08:16:06;;;;;;;4.30;2.90;;;28.00;56.70;;;;;;5012809;28;20038;-80
2022/05/13 08:18:32;;;;;;;4.68;3.00;;;28.30;56.90;;;;;;4996430;28;20057;-79
2022/05/13 08:20:59;;;;;;;5.85;3.53;;;28.40;55.90;;;;;;5013921;28;20080;-85
2022/05/13 08:23:24;;;;;;;3.80;2.90;;;28.20;57.70;;;;;;5013469;28;20069;-77
2022/05/13 08:25:51;;;;;;;3.95;2.90;;;28.50;57.00;;;;;;5014116;28;20053;-85
2022/05/13 08:28:20;;;;;;;6.88;3.55;;;28.80;56.90;;;;;;5012410;28;20029;-87
2022/05/13 08:30:46;;;;;;;3.85;2.67;;;28.80;56.20;;;;;;5012730;28;20026;-84
2022/05/13 08:33:12;;;;;;;4.40;2.97;;;28.80;56.40;;;;;;5012393;28;20026;-81
2022/05/13 08:35:46;;;;;;;5.13;2.90;;;28.80;56.40;;;;;;4996326;28;20026;-81
2022/05/13 08:38:21;;;;;;;5.55;3.10;;;28.60;56.30;;;;;;5012423;28;20083;-80
2022/05/13 08:40:51;;;;;;;6.20;3.15;;;28.60;56.40;;;;;;5013807;28;20033;-86
2022/05/13 08:43:21;;;;;;;4.22;3.00;;;28.70;56.50;;;;;;5013282;28;20487;-80
2022/05/13 08:45:53;;;;;;;4.50;3.08;;;28.90;56.40;;;;;;5013455;28;20017;-91
2022/05/13 08:48:30;;;;;;;4.20;2.97;;;28.90;57.00;;;;;;5013496;28;20029;-88
2022/05/13 08:51:21;;;;;;;5.50;3.05;;;28.60;56.60;;;;;;5009353;28;20042;-84
2022/05/13 08:53:53;;;;;;;5.47;3.00;;;28.40;57.60;;;;;;4997133;28;20504;-88
2022/05/13 08:56:33;;;;;;;4.47;2.90;;;28.20;58.00;;;;;;5013466;28;20029;-83
2022/05/13 08:59:08;;;;;;;5.15;2.80;;;28.30;58.00;;;;;;5012979;28;20389;-86
2022/05/13 09:01:48;;;;;;;4.75;2.65;;;28.60;57.10;;;;;;5012180;28;20404;-85
2022/05/13 09:04:39;;;;;;;4.80;2.60;;;28.50;57.40;;;;;;4995949;28;20125;-82
2022/05/13 09:07:05;;;;;;;;;;;27.90;57.70;;;;;;4953243;29;20039;-79
2022/05/13 09:09:32;;;;;;;4.35;3.03;;;27.60;58.20;;;;;;4953460;29;19906;-84
2022/05/13 09:11:58;;;;;;;4.38;2.83;;;27.40;58.60;;;;;;4937162;29;20031;-86
2022/05/13 09:14:33;;;;;;;4.78;3.08;;;27.90;59.00;;;;;;4953326;29;20090;-80
2022/05/13 09:17:24;;;;;;;5.15;2.70;;;28.00;58.90;;;;;;4953232;29;20040;-85
2022/05/13 09:19:58;;;;;;;4.78;2.97;;;28.40;58.80;;;;;;4877597;29;20080;-85
2022/05/13 09:22:43;;;;;;;6.05;3.10;;;28.60;58.30;;;;;;4877598;29;20110;-87
2022/05/13 09:25:45;;;;;;;4.60;2.90;;;28.60;57.10;;;;;;4877736;29;20057;-83
2022/05/13 09:28:15;;;;;;;7.05;2.75;;;27.80;57.90;;;;;;4877451;29;20073;-87
2022/05/13 09:30:44;;;;;;;7.32;3.20;;;27.90;58.70;;;;;;4877502;29;20049;-81
2022/05/13 09:33:30;;;;;;;4.32;2.90;;;27.60;59.20;;;;;;4877674;29;20037;-80
2022/05/13 09:36:27;;;;;;;4.55;3.15;;;27.80;59.00;;;;;;4877498;29;20074;-81
2022/05/13 09:38:59;;;;;;;6.75;3.22;;;27.80;59.10;;;;;;4875553;29;20049;-80
2022/05/13 09:41:33;;;;;;;5.63;3.42;;;27.70;59.20;;;;;;4877928;29;20501;-81
2022/05/13 09:44:06;;;;;;;5.57;3.50;;;27.80;59.60;;;;;;4904421;29;20063;-79
2022/05/13 09:46:38;;;;;;;7.85;3.75;;;27.60;59.90;;;;;;4934358;29;20036;-88
2022/05/13 09:49:33;;;;;;;7.05;3.58;;;27.40;59.90;;;;;;4933676;29;20117;-85
2022/05/13 09:52:19;;;;;;;4.55;2.90;;;27.30;60.70;;;;;;4917942;29;20120;-81
2022/05/13 09:54:47;;;;;;;4.68;3.03;;;27.30;61.00;;;;;;4930826;29;20040;-76
2022/05/13 09:57:29;;;;;;;4.43;3.20;;;27.20;59.60;;;;;;4979363;28;20045;-79
2022/05/13 10:00:14;;;;;;;4.55;2.80;;;26.70;60.50;;;;;;4998832;28;20116;-84
2022/05/13 10:02:42;;;;;;;4.53;3.30;;;26.90;61.40;;;;;;5015796;28;20424;-79
2022/05/13 10:05:19;;;;;;;7.25;3.38;;;27.30;60.40;;;;;;5016165;28;20412;-79
2022/05/13 10:07:58;;;;;;;4.15;3.00;;;27.40;59.90;;;;;;4999168;28;20033;-76
2022/05/13 10:16:46;;;;;;;5.13;3.30;;;27.70;59.50;;;;;;5015860;28;20045;-82
2022/05/13 10:19:37;;;;;;;4.13;2.95;;;27.70;59.00;;;;;;4992650;28;20754;-84
2022/05/13 10:22:21;;;;;;;;;;;27.70;58.70;;;;;;4999029;28;20499;-84
2022/05/13 10:25:14;;;;;;;4.60;2.85;;;28.00;59.30;;;;;;4998542;28;19955;-81
2022/05/13 10:27:47;;;;;;;5.85;3.22;;;28.00;58.50;;;;;;4998813;28;20029;-78
2022/05/13 10:30:41;;;;;;;7.60;3.30;;;28.20;57.90;;;;;;5016558;28;20160;-82
2022/05/13 10:33:16;;;;;;;4.57;3.00;;;27.80;58.70;;;;;;5014747;28;20021;-80
2022/05/13 10:35:59;;;;;;;4.53;3.00;;;27.70;58.00;;;;;;5016154;28;20034;-82
2022/05/13 10:38:48;;;;;;;4.50;3.00;;;28.00;57.50;;;;;;4998321;28;20084;-80
2022/05/13 10:41:34;;;;;;;4.97;2.90;;;28.30;57.10;;;;;;5015596;28;20038;-80
2022/05/13 10:44:16;;;;;;;4.93;2.83;;;28.60;57.20;;;;;;4997884;28;20077;-84
2022/05/13 10:46:45;;;;;;;5.80;2.90;;;28.90;56.30;;;;;;5015822;28;20149;-81
2022/05/13 10:49:13;;;;;;;5.28;2.80;;;28.60;55.30;;;;;;5015688;28;20026;-90
2022/05/13 10:51:57;;;;;;;5.05;2.78;;;28.30;56.20;;;;;;5014841;28;20046;-79
2022/05/13 10:54:46;;;;;;;7.13;3.15;;;28.20;55.20;;;;;;5014710;28;20045;-81
2022/05/13 10:57:23;;;;;;;7.07;2.83;;;27.80;55.50;;;;;;4955055;29;20156;-83
2022/05/13 10:59:57;;;;;;;6.78;3.22;;;27.70;56.00;;;;;;4955585;29;20027;-84
2022/05/13 11:02:38;;;;;;;4.85;2.75;;;27.90;55.40;;;;;;4939036;29;20039;-82
2022/05/13 11:05:09;;;;;;;;;;;28.10;55.20;;;;;;4939174;29;20125;-86
2022/05/13 11:07:45;;;;;;;5.70;2.75;;;28.30;55.80;;;;;;4955118;29;20123;-86
2022/05/13 11:10:29;;;;;;;5.57;2.50;;;28.40;54.80;;;;;;4938874;29;20043;-79
2022/05/13 11:13:10;;;;;;;11.93;3.25;;;28.30;53.90;;;;;;4955292;29;20035;-81
2022/05/13 11:16:00;;;;;;;5.55;2.50;;;28.10;53.10;;;;;;4940007;29;20047;-83
2022/05/13 11:18:50;;;;;;;5.43;2.57;;;27.80;52.70;;;;;;4954788;29;20023;-83
2022/05/13 11:21:41;;;;;;;7.27;2.60;;;27.10;54.50;;;;;;4955903;28;20288;-88
2022/05/13 11:27:57;;;;;;;7.53;3.42;;;27.00;55.20;;;;;;4954739;28;20054;-85
2022/05/13 11:30:50;;;;;;;7.50;2.80;;;27.20;54.60;;;;;;4944233;29;20167;-86
2022/05/13 11:33:25;;;;;;;5.60;2.63;;;27.20;54.40;;;;;;4951764;28;20596;-87
2022/05/13 11:36:31;;;;;;;4.20;2.83;;;26.70;55.10;;;;;;5014863;28;20041;-82
2022/05/13 11:39:10;;;;;;;4.43;3.22;;;26.70;55.70;;;;;;5014903;28;20350;-81
2022/05/13 11:42:09;;;;;;;4.18;2.80;;;26.50;55.00;;;;;;4996987;28;20048;-81
2022/05/13 11:45:05;;;;;;;7.35;2.80;;;26.80;53.90;;;;;;5014509;28;20022;-79
2022/05/13 11:48:11;;;;;;;6.53;3.05;;;27.10;53.20;;;;;;5014496;28;20022;-83
2022/05/13 11:50:37;;;;;;;5.68;2.60;;;27.40;53.50;;;;;;5012969;28;20087;-78
2022/05/13 11:53:03;;;;;;;6.50;2.83;;;27.50;53.70;;;;;;5014104;28;20040;-82
2022/05/13 11:55:47;;;;;;;4.63;2.72;;;27.60;54.30;;;;;;5014365;28;20033;-88
2022/05/13 11:58:44;;;;;;;5.45;2.80;;;27.70;53.70;;;;;;5013482;28;20350;-84
2022/05/13 12:01:10;;;;;;;6.15;2.90;;;27.30;54.30;;;;;;5013609;28;20416;-80
2022/05/13 12:03:38;;;;;;;4.43;3.00;;;27.40;55.00;;;;;;5013985;28;20026;-80
2022/05/13 12:06:08;;;;;;;4.13;2.97;;;27.20;55.50;;;;;;5014498;28;20175;-80
2022/05/13 12:08:36;;;;;;;7.55;3.50;;;27.00;56.50;;;;;;5013720;28;20484;-85
2022/05/13 12:11:02;;;;;;;5.53;3.22;;;26.90;57.00;;;;;;5013126;28;20038;-81
2022/05/13 12:13:49;;;;;;;10.00;3.40;;;27.00;57.20;;;;;;5013948;28;20030;-83
2022/05/13 12:16:33;;;;;;;4.95;2.92;;;27.20;56.70;;;;;;5013430;28;20434;-79
2022/05/13 12:19:29;;;;;;;8.02;3.13;;;26.80;56.70;;;;;;5014116;28;20026;-81
2022/05/13 12:21:59;;;;;;;6.22;2.83;;;26.80;57.00;;;;;;4937541;29;20063;-80
2022/05/13 12:24:25;;;;;;;6.28;2.83;;;26.70;56.60;;;;;;4953916;29;20042;-82
2022/05/13 12:26:51;;;;;;;4.78;3.17;;;26.80;56.20;;;;;;4937706;29;20038;-81
2022/05/13 12:29:43;;;;;;;6.65;3.70;;;27.00;56.70;;;;;;4937447;29;20474;-85
2022/05/13 12:32:20;;;;;;;5.95;3.33;;;26.70;56.50;;;;;;4877591;29;20453;-81
2022/05/13 12:37:47;;;;;;;6.63;3.30;;;26.40;57.70;;;;;;4878101;29;20104;-79
2022/05/13 12:40:22;;;;;;;4.55;3.15;;;26.40;57.60;;;;;;4877981;29;20085;-79
2022/05/13 12:42:49;;;;;;;4.65;3.30;;;26.60;57.00;;;;;;4877821;29;20089;-78
2022/05/13 12:45:23;;;;;;;4.40;3.10;;;26.40;57.40;;;;;;4862115;29;20453;-77
2022/05/13 12:47:59;;;;;;;5.22;3.08;;;26.50;56.80;;;;;;4877539;29;20057;-76
2022/05/13 12:50:49;;;;;;;4.07;2.95;;;26.60;56.40;;;;;;4876657;29;20082;-79
2022/05/13 12:53:29;;;;;;;4.68;2.95;;;26.50;57.40;;;;;;4861966;29;20037;-80
2022/05/13 12:55:56;;;;;;;;;;;26.40;57.20;;;;;;4877600;29;20136;-81
2022/05/13 12:58:24;;;;;;;5.00;2.80;;;26.40;57.20;;;;;;4898885;29;19907;-83
2022/05/13 13:00:52;;;;;;;4.95;2.88;;;26.40;58.30;;;;;;4933545;29;20028;-76
2022/05/13 13:03:19;;;;;;;4.22;2.80;;;26.40;59.10;;;;;;4933458;29;20480;-77
2022/05/13 13:05:57;;;;;;;6.28;3.20;;;26.60;59.20;;;;;;4933357;29;20027;-78
2022/05/13 13:08:31;;;;;;;7.97;3.60;;;26.80;58.60;;;;;;4944409;28;20034;-77
2022/05/13 13:11:17;;;;;;;5.25;3.22;;;26.90;58.20;;;;;;4992305;28;20485;-76
2022/05/13 13:14:08;;;;;;;5.47;3.58;;;27.20;58.00;;;;;;4993462;28;20014;-76
2022/05/13 13:16:43;;;;;;;5.45;3.58;;;27.40;58.20;;;;;;4985527;28;20409;-76
2022/05/13 13:19:17;;;;;;;5.88;3.60;;;27.60;57.60;;;;;;4993258;28;20434;-77
2022/05/13 13:21:50;;;;;;;4.60;3.42;;;27.70;57.90;;;;;;4993089;28;20529;-79
2022/05/13 13:24:18;;;;;;;5.78;3.72;;;27.80;57.90;;;;;;4993087;28;20042;-78
2022/05/13 13:26:48;;;;;;;6.97;4.18;;;27.80;58.00;;;;;;5007925;28;20030;-79
2022/05/13 13:29:26;;;;;;;7.07;3.60;;;27.80;58.00;;;;;;4995312;28;20377;-77
2022/05/13 13:31:52;;;;;;;6.10;3.88;;;27.40;58.40;;;;;;4997183;28;20029;-77
2022/05/13 13:34:24;;;;;;;6.45;3.63;;;27.40;58.80;;;;;;4997200;28;20030;-85
2022/05/13 13:36:51;;;;;;;7.18;3.47;;;27.50;58.20;;;;;;4996018;28;20124;-85
2022/05/13 13:39:17;;;;;;;4.97;3.40;;;27.30;58.90;;;;;;4995592;28;20494;-84
2022/05/13 13:41:47;;;;;;;5.93;3.28;;;27.30;59.00;;;;;;5012438;28;20030;-85